createdAt,value
2022-09-26T00:00:31.799Z,9.23
2022-09-26T00:01:31.882Z,9.24
2022-09-26T00:02:31.801Z,9.12
2022-09-26T00:03:31.786Z,9.15
2022-09-26T00:04:33.017Z,9.18
2022-09-26T00:05:32.764Z,9.15
2022-09-26T00:06:31.771Z,8.94
2022-09-26T00:07:31.804Z,8.93
2022-09-26T00:08:31.764Z,8.84
2022-09-26T00:09:31.743Z,8.99
2022-09-26T00:10:31.754Z,9.05
2022-09-26T00:11:31.744Z,8.94
2022-09-26T00:12:31.745Z,9.15
2022-09-26T00:13:31.724Z,9.25
2022-09-26T00:14:31.698Z,9.35
2022-09-26T00:15:31.726Z,9.40
2022-09-26T00:16:31.758Z,9.56
2022-09-26T00:17:31.709Z,9.50
2022-09-26T00:18:31.682Z,9.52
2022-09-26T00:19:31.671Z,9.61
2022-09-26T00:20:31.689Z,9.56
2022-09-26T00:21:31.655Z,9.57
2022-09-26T00:22:31.659Z,9.71
2022-09-26T00:23:31.658Z,9.67
2022-09-26T00:24:31.648Z,9.76
2022-09-26T00:25:31.657Z,9.73
2022-09-26T00:26:31.647Z,9.71
2022-09-26T00:27:31.637Z,9.81
2022-09-26T00:28:31.668Z,9.70
2022-09-26T00:29:32.469Z,9.71
2022-09-26T00:30:31.672Z,9.85
2022-09-26T00:31:31.613Z,9.78
2022-09-26T00:32:31.601Z,9.75
2022-09-26T00:33:31.605Z,9.75
2022-09-26T00:34:31.649Z,9.73
2022-09-26T00:35:31.577Z,9.57
2022-09-26T00:36:38.023Z,9.64
2022-09-26T00:37:33.557Z,9.70
2022-09-26T00:38:31.560Z,9.43
2022-09-26T00:39:31.773Z,9.48
2022-09-26T00:40:31.625Z,9.50
2022-09-26T00:41:31.544Z,9.63
2022-09-26T00:42:31.545Z,9.61
2022-09-26T00:43:31.539Z,9.71
2022-09-26T00:44:31.552Z,9.76
2022-09-26T00:45:31.578Z,9.78
2022-09-26T00:46:31.688Z,9.71
2022-09-26T00:47:31.504Z,9.86
2022-09-26T00:48:31.509Z,9.85
2022-09-26T00:49:31.546Z,10.01
2022-09-26T00:50:31.545Z,10.07
2022-09-26T00:51:31.492Z,9.93
2022-09-26T00:52:31.482Z,9.68
2022-09-26T00:53:31.470Z,9.66
2022-09-26T00:54:31.463Z,9.67
2022-09-26T00:55:31.477Z,9.83
2022-09-26T00:56:31.454Z,9.70
2022-09-26T00:57:31.441Z,9.70
2022-09-26T00:58:31.433Z,9.71
2022-09-26T00:59:31.441Z,9.75
2022-09-26T01:00:31.454Z,9.91
2022-09-26T01:01:31.541Z,10.14
2022-09-26T01:02:31.538Z,10.19
2022-09-26T01:03:32.435Z,10.43
2022-09-26T01:04:31.409Z,10.47
2022-09-26T01:05:31.394Z,10.46
2022-09-26T01:06:31.406Z,10.32
2022-09-26T01:07:31.392Z,10.32
2022-09-26T01:08:31.363Z,10.26
2022-09-26T01:09:31.373Z,10.01
2022-09-26T01:10:31.358Z,10.03
2022-09-26T01:11:31.375Z,9.99
2022-09-26T01:12:31.383Z,10.06
2022-09-26T01:13:31.374Z,10.21
2022-09-26T01:14:31.341Z,10.15
2022-09-26T01:15:31.370Z,10.10
2022-09-26T01:16:31.406Z,10.06
2022-09-26T01:17:31.331Z,9.89
2022-09-26T01:18:31.322Z,9.99
2022-09-26T01:19:31.312Z,10.09
2022-09-26T01:20:31.315Z,10.09
2022-09-26T01:21:31.312Z,10.07
2022-09-26T01:22:31.284Z,10.01
2022-09-26T01:23:31.287Z,10.00
2022-09-26T01:24:31.281Z,10.01
2022-09-26T01:25:31.279Z,9.99
2022-09-26T01:26:31.263Z,10.01
2022-09-26T01:27:31.264Z,9.82
2022-09-26T01:28:31.279Z,9.88
2022-09-26T01:29:31.256Z,9.85
2022-09-26T01:30:31.283Z,9.96
2022-09-26T01:31:31.239Z,10.00
2022-09-26T01:32:31.266Z,10.09
2022-09-26T01:33:31.240Z,10.09
2022-09-26T01:34:31.203Z,10.12
2022-09-26T01:35:32.232Z,10.07
2022-09-26T01:36:31.220Z,9.89
2022-09-26T01:37:31.214Z,9.83
2022-09-26T01:38:31.201Z,9.66
2022-09-26T01:39:31.207Z,9.58
2022-09-26T01:40:31.289Z,9.49
2022-09-26T01:41:31.194Z,9.35
2022-09-26T01:42:31.209Z,9.23
2022-09-26T01:43:31.171Z,9.09
2022-09-26T01:44:31.155Z,8.96
2022-09-26T01:45:31.234Z,8.78
2022-09-26T01:46:31.140Z,8.79
2022-09-26T01:47:31.141Z,8.87
2022-09-26T01:48:31.167Z,8.75
2022-09-26T01:49:31.134Z,8.86
2022-09-26T01:50:31.139Z,8.90
2022-09-26T01:51:31.152Z,9.13
2022-09-26T01:52:31.112Z,9.27
2022-09-26T01:53:31.107Z,9.32
2022-09-26T01:54:31.096Z,9.45
2022-09-26T01:55:31.120Z,9.49
2022-09-26T01:56:31.119Z,9.58
2022-09-26T01:57:31.067Z,9.31
2022-09-26T01:58:31.063Z,9.24
2022-09-26T01:59:31.087Z,9.28
2022-09-26T02:00:31.081Z,9.32
2022-09-26T02:01:31.164Z,9.50
2022-09-26T02:02:31.133Z,9.56
2022-09-26T02:03:31.048Z,9.53
2022-09-26T02:04:31.039Z,9.50
2022-09-26T02:05:31.018Z,9.40
2022-09-26T02:06:31.052Z,9.21
2022-09-26T02:07:31.019Z,9.16
2022-09-26T02:08:31.015Z,9.06
2022-09-26T02:09:30.995Z,9.30
2022-09-26T02:10:31.010Z,9.15
2022-09-26T02:11:30.995Z,9.18
2022-09-26T02:12:31.040Z,9.32
2022-09-26T02:13:30.972Z,9.31
2022-09-26T02:14:30.963Z,9.04
2022-09-26T02:15:30.963Z,8.79
2022-09-26T02:16:31.041Z,8.75
2022-09-26T02:17:30.958Z,8.79
2022-09-26T02:18:30.958Z,8.83
2022-09-26T02:19:30.930Z,8.83
2022-09-26T02:20:30.923Z,8.94
2022-09-26T02:21:30.950Z,8.99
2022-09-26T02:22:30.923Z,9.12
2022-09-26T02:23:30.972Z,9.20
2022-09-26T02:24:30.902Z,9.27
2022-09-26T02:25:30.883Z,9.48
2022-09-26T02:26:30.910Z,9.53
2022-09-26T02:27:30.884Z,9.38
2022-09-26T02:28:30.903Z,9.48
2022-09-26T02:29:30.872Z,9.49
2022-09-26T02:30:30.863Z,9.61
2022-09-26T02:31:30.899Z,9.63
2022-09-26T02:32:30.866Z,9.61
2022-09-26T02:33:30.850Z,9.64
2022-09-26T02:34:30.839Z,9.71
2022-09-26T02:35:30.849Z,9.75
2022-09-26T02:36:30.937Z,9.81
2022-09-26T02:37:30.827Z,9.76
2022-09-26T02:38:30.849Z,9.78
2022-09-26T02:39:30.812Z,9.82
2022-09-26T02:40:30.874Z,9.66
2022-09-26T02:41:30.821Z,9.61
2022-09-26T02:42:30.816Z,9.68
2022-09-26T02:43:30.785Z,9.82
2022-09-26T02:44:30.799Z,9.79
2022-09-26T02:45:30.814Z,9.88
2022-09-26T02:46:30.773Z,10.04
2022-09-26T02:47:30.752Z,10.03
2022-09-26T02:48:30.783Z,9.99
2022-09-26T02:49:30.756Z,10.01
2022-09-26T02:50:32.908Z,9.89
2022-09-26T02:51:30.743Z,9.85
2022-09-26T02:52:30.736Z,9.78
2022-09-26T02:53:30.777Z,9.81
2022-09-26T02:54:30.708Z,9.82
2022-09-26T02:55:30.718Z,9.79
2022-09-26T02:56:30.695Z,9.82
2022-09-26T02:57:30.695Z,9.89
2022-09-26T02:58:30.705Z,10.07
2022-09-26T02:59:30.683Z,10.12
2022-09-26T03:00:30.679Z,10.32
2022-09-26T03:01:30.684Z,10.36
2022-09-26T03:02:31.447Z,10.26
2022-09-26T03:03:30.729Z,10.14
2022-09-26T03:04:30.730Z,10.18
2022-09-26T03:05:30.655Z,10.30
2022-09-26T03:06:30.659Z,10.40
2022-09-26T03:07:30.637Z,10.33
2022-09-26T03:08:30.668Z,10.33
2022-09-26T03:09:30.624Z,10.28
2022-09-26T03:10:30.626Z,10.40
2022-09-26T03:11:30.618Z,10.44
2022-09-26T03:12:30.602Z,10.34
2022-09-26T03:13:30.614Z,10.47
2022-09-26T03:14:30.606Z,10.59
2022-09-26T03:15:30.623Z,10.77
2022-09-26T03:16:30.659Z,10.78
2022-09-26T03:17:30.567Z,10.73
2022-09-26T03:18:30.584Z,10.70
2022-09-26T03:19:30.567Z,10.78
2022-09-26T03:20:30.558Z,10.81
2022-09-26T03:21:34.867Z,10.60
2022-09-26T03:22:31.602Z,10.78
2022-09-26T03:23:30.563Z,10.74
2022-09-26T03:24:30.585Z,10.80
2022-09-26T03:25:30.517Z,10.70
2022-09-26T03:26:30.522Z,10.74
2022-09-26T03:27:30.502Z,10.76
2022-09-26T03:28:35.324Z,10.70
2022-09-26T03:29:32.506Z,10.65
2022-09-26T03:30:30.490Z,10.66
2022-09-26T03:31:31.661Z,10.71
2022-09-26T03:32:30.512Z,10.77
2022-09-26T03:33:30.481Z,10.78
2022-09-26T03:34:30.484Z,10.70
2022-09-26T03:35:30.458Z,10.73
2022-09-26T03:36:30.456Z,10.81
2022-09-26T03:37:30.439Z,10.94
2022-09-26T03:38:30.449Z,10.99
2022-09-26T03:39:30.442Z,10.95
2022-09-26T03:40:31.507Z,10.92
2022-09-26T03:41:30.422Z,10.88
2022-09-26T03:42:30.410Z,10.95
2022-09-26T03:43:30.407Z,10.84
2022-09-26T03:44:30.447Z,10.94
2022-09-26T03:45:30.453Z,10.66
2022-09-26T03:46:30.467Z,10.74
2022-09-26T03:47:30.394Z,10.81
2022-09-26T03:48:30.407Z,10.74
2022-09-26T03:49:30.421Z,10.88
2022-09-26T03:50:30.391Z,10.91
2022-09-26T03:51:30.369Z,10.84
2022-09-26T03:52:30.363Z,10.96
2022-09-26T03:53:30.364Z,10.77
2022-09-26T03:54:30.360Z,10.84
2022-09-26T03:55:30.344Z,10.73
2022-09-26T03:56:30.323Z,10.60
2022-09-26T03:57:30.321Z,10.74
2022-09-26T03:58:30.317Z,10.78
2022-09-26T03:59:30.312Z,10.73
2022-09-26T04:00:30.337Z,10.81
2022-09-26T04:01:30.354Z,10.86
2022-09-26T04:02:30.418Z,10.78
2022-09-26T04:03:30.287Z,10.83
2022-09-26T04:04:30.269Z,10.80
2022-09-26T04:05:30.288Z,10.81
2022-09-26T04:06:30.279Z,10.80
2022-09-26T04:07:30.275Z,10.89
2022-09-26T04:08:30.262Z,10.83
2022-09-26T04:09:30.249Z,10.78
2022-09-26T04:10:30.276Z,10.94
2022-09-26T04:11:30.255Z,10.83
2022-09-26T04:12:30.279Z,10.94
2022-09-26T04:13:53.837Z,10.83
2022-09-26T04:14:32.231Z,10.74
2022-09-26T04:15:30.227Z,10.66
2022-09-26T04:16:30.356Z,10.68
2022-09-26T04:17:30.220Z,10.74
2022-09-26T04:18:30.200Z,10.80
2022-09-26T04:19:30.197Z,10.91
2022-09-26T04:20:30.208Z,11.03
2022-09-26T04:21:30.182Z,10.99
2022-09-26T04:22:30.173Z,10.95
2022-09-26T04:23:30.162Z,10.88
2022-09-26T04:24:30.221Z,10.91
2022-09-26T04:25:30.347Z,10.89
2022-09-26T04:26:30.162Z,10.81
2022-09-26T04:27:30.144Z,11.01
2022-09-26T04:28:30.138Z,11.13
2022-09-26T04:29:30.116Z,11.10
2022-09-26T04:30:30.131Z,11.03
2022-09-26T04:31:30.234Z,11.19
2022-09-26T04:32:30.123Z,11.14
2022-09-26T04:33:30.102Z,11.14
2022-09-26T04:34:30.091Z,11.19
2022-09-26T04:35:30.091Z,11.21
2022-09-26T04:36:30.109Z,11.27
2022-09-26T04:37:30.090Z,11.25
2022-09-26T04:38:30.095Z,11.29
2022-09-26T04:39:30.054Z,11.19
2022-09-26T04:40:30.113Z,11.21
2022-09-26T04:41:30.096Z,11.16
2022-09-26T04:42:30.073Z,11.16
2022-09-26T04:43:30.053Z,11.28
2022-09-26T04:44:30.168Z,11.21
2022-09-26T04:45:30.109Z,11.27
2022-09-26T04:46:31.197Z,11.24
2022-09-26T04:47:31.040Z,11.28
2022-09-26T04:48:30.013Z,11.28
2022-09-26T04:49:30.967Z,11.24
2022-09-26T04:50:30.018Z,11.36
2022-09-26T04:51:30.987Z,11.36
2022-09-26T04:52:30.070Z,11.32
2022-09-26T04:53:30.027Z,11.29
2022-09-26T04:54:30.964Z,11.28
2022-09-26T04:55:29.960Z,11.03
2022-09-26T04:56:30.102Z,10.88
2022-09-26T04:57:29.969Z,10.86
2022-09-26T04:58:29.973Z,10.94
2022-09-26T04:59:29.946Z,11.14
2022-09-26T05:00:29.985Z,11.14
2022-09-26T05:01:31.084Z,11.10
2022-09-26T05:02:30.516Z,11.07
2022-09-26T05:03:30.944Z,11.02
2022-09-26T05:04:29.919Z,10.92
2022-09-26T05:05:29.920Z,11.01
2022-09-26T05:06:29.963Z,11.09
2022-09-26T05:07:29.942Z,11.17
2022-09-26T05:08:29.899Z,11.17
2022-09-26T05:09:34.186Z,11.24
2022-09-26T05:10:31.888Z,11.19
2022-09-26T05:11:29.872Z,11.17
2022-09-26T05:12:29.858Z,10.92
2022-09-26T05:13:29.896Z,10.89
2022-09-26T05:14:29.857Z,10.81
2022-09-26T05:15:29.851Z,10.95
2022-09-26T05:16:29.877Z,11.01
2022-09-26T05:17:29.844Z,11.16
2022-09-26T05:18:29.830Z,11.07
2022-09-26T05:19:29.840Z,11.10
2022-09-26T05:20:29.835Z,11.02
2022-09-26T05:21:29.800Z,10.95
2022-09-26T05:22:29.802Z,10.76
2022-09-26T05:23:29.831Z,10.74
2022-09-26T05:24:29.795Z,10.81
2022-09-26T05:25:29.818Z,10.81
2022-09-26T05:26:29.782Z,10.89
2022-09-26T05:27:29.855Z,10.88
2022-09-26T05:28:29.772Z,10.73
2022-09-26T05:29:30.771Z,10.74
2022-09-26T05:30:29.757Z,10.62
2022-09-26T05:31:29.794Z,10.78
2022-09-26T05:32:29.784Z,10.80
2022-09-26T05:33:29.759Z,10.96
2022-09-26T05:34:29.768Z,10.91
2022-09-26T05:35:29.731Z,11.02
2022-09-26T05:36:29.722Z,11.06
2022-09-26T05:37:30.716Z,11.16
2022-09-26T05:38:29.704Z,11.29
2022-09-26T05:39:29.722Z,11.41
2022-09-26T05:40:29.708Z,11.29
2022-09-26T05:41:29.691Z,11.39
2022-09-26T05:42:29.707Z,11.47
2022-09-26T05:43:29.671Z,11.47
2022-09-26T05:44:29.690Z,11.38
2022-09-26T05:45:29.654Z,11.47
2022-09-26T05:46:29.720Z,11.27
2022-09-26T05:47:29.651Z,11.25
2022-09-26T05:48:29.634Z,11.36
2022-09-26T05:49:29.695Z,11.52
2022-09-26T05:50:29.627Z,11.46
2022-09-26T05:51:29.681Z,11.49
2022-09-26T05:52:29.618Z,11.31
2022-09-26T05:53:29.629Z,11.11
2022-09-26T05:54:29.641Z,11.28
2022-09-26T05:55:29.603Z,11.21
2022-09-26T05:56:29.597Z,11.25
2022-09-26T05:57:29.601Z,11.29
2022-09-26T05:58:29.587Z,11.32
2022-09-26T05:59:29.589Z,11.28
2022-09-26T06:00:29.635Z,11.20
2022-09-26T06:01:29.626Z,11.36
2022-09-26T06:02:29.617Z,11.56
2022-09-26T06:03:29.602Z,11.56
2022-09-26T06:04:29.647Z,11.54
2022-09-26T06:05:29.558Z,11.64
2022-09-26T06:06:29.533Z,11.56
2022-09-26T06:07:29.534Z,11.54
2022-09-26T06:08:29.523Z,11.46
2022-09-26T06:09:29.568Z,11.59
2022-09-26T06:10:29.529Z,11.39
2022-09-26T06:11:29.561Z,11.49
2022-09-26T06:12:29.490Z,11.53
2022-09-26T06:13:29.501Z,11.54
2022-09-26T06:14:29.501Z,11.41
2022-09-26T06:15:29.519Z,11.50
2022-09-26T06:16:29.601Z,11.61
2022-09-26T06:17:29.485Z,11.64
2022-09-26T06:18:29.529Z,11.52
2022-09-26T06:19:29.466Z,11.43
2022-09-26T06:20:29.498Z,11.49
2022-09-26T06:21:29.466Z,11.43
2022-09-26T06:22:29.494Z,11.31
2022-09-26T06:23:29.435Z,11.57
2022-09-26T06:24:29.438Z,11.83
2022-09-26T06:25:29.489Z,11.59
2022-09-26T06:26:29.441Z,11.39
2022-09-26T06:27:29.426Z,11.24
2022-09-26T06:28:29.409Z,11.39
2022-09-26T06:29:29.416Z,11.43
2022-09-26T06:30:29.423Z,11.64
2022-09-26T06:31:29.442Z,11.70
2022-09-26T06:32:30.497Z,11.77
2022-09-26T06:33:33.282Z,11.72
2022-09-26T06:34:30.413Z,11.46
2022-09-26T06:35:29.446Z,11.50
2022-09-26T06:36:29.365Z,11.54
2022-09-26T06:37:29.357Z,11.54
2022-09-26T06:38:29.353Z,11.61
2022-09-26T06:39:29.341Z,11.75
2022-09-26T06:40:29.399Z,11.68
2022-09-26T06:41:29.397Z,11.85
2022-09-26T06:42:29.332Z,12.09
2022-09-26T06:43:29.401Z,12.12
2022-09-26T06:44:29.316Z,12.02
2022-09-26T06:45:29.295Z,11.96
2022-09-26T06:46:29.392Z,12.05
2022-09-26T06:47:29.320Z,12.21
2022-09-26T06:48:29.271Z,12.33
2022-09-26T06:49:29.271Z,12.41
2022-09-26T06:50:29.273Z,12.37
2022-09-26T06:51:29.276Z,12.26
2022-09-26T06:52:29.336Z,12.12
2022-09-26T06:53:29.247Z,11.72
2022-09-26T06:54:29.243Z,11.93
2022-09-26T06:55:29.238Z,11.97
2022-09-26T06:56:29.269Z,12.20
2022-09-26T06:57:29.235Z,12.12
2022-09-26T06:58:29.215Z,12.41
2022-09-26T06:59:29.216Z,12.41
2022-09-26T07:00:29.234Z,12.39
2022-09-26T07:01:29.326Z,12.27
2022-09-26T07:02:29.219Z,12.16
2022-09-26T07:03:29.191Z,12.01
2022-09-26T07:04:29.175Z,12.01
2022-09-26T07:05:29.199Z,12.12
2022-09-26T07:06:29.163Z,12.15
2022-09-26T07:07:29.166Z,12.08
2022-09-26T07:08:57.307Z,12.15
2022-09-26T07:09:31.148Z,12.13
2022-09-26T07:10:29.155Z,12.20
2022-09-26T07:11:50.977Z,12.19
2022-09-26T07:12:31.140Z,12.29
2022-09-26T07:13:29.128Z,12.23
2022-09-26T07:14:29.100Z,12.23
2022-09-26T07:15:29.112Z,12.27
2022-09-26T07:16:29.231Z,12.26
2022-09-26T07:17:29.108Z,12.11
2022-09-26T07:18:29.083Z,12.20
2022-09-26T07:19:29.079Z,12.31
2022-09-26T07:21:01.031Z,12.08
2022-09-26T07:21:29.048Z,12.26
2022-09-26T07:22:29.075Z,12.44
2022-09-26T07:23:29.951Z,12.20
2022-09-26T07:24:30.039Z,12.69
2022-09-26T07:25:29.019Z,12.95
2022-09-26T07:26:29.021Z,13.14
2022-09-26T07:27:29.035Z,13.44
2022-09-26T07:28:29.035Z,13.71
2022-09-26T07:29:29.007Z,14.02
2022-09-26T07:30:29.015Z,14.57
2022-09-26T07:31:29.046Z,14.52
2022-09-26T07:32:28.979Z,14.64
2022-09-26T07:33:28.988Z,14.80
2022-09-26T07:34:28.979Z,14.28
2022-09-26T07:35:28.982Z,14.16
2022-09-26T07:36:28.955Z,14.12
2022-09-26T07:37:28.947Z,14.44
2022-09-26T07:38:28.957Z,14.69
2022-09-26T07:39:28.968Z,14.98
2022-09-26T07:40:28.968Z,14.31
2022-09-26T07:41:28.915Z,14.17
2022-09-26T07:42:28.932Z,14.74
2022-09-26T07:43:53.600Z,14.80
2022-09-26T07:45:09.665Z,15.12
2022-09-26T07:45:31.123Z,15.68
2022-09-26T07:46:29.916Z,16.44
2022-09-26T07:47:28.886Z,16.83
2022-09-26T07:48:28.880Z,17.63
2022-09-26T07:49:28.888Z,16.77
2022-09-26T07:50:28.874Z,17.00
2022-09-26T07:51:28.855Z,17.54
2022-09-26T07:52:28.843Z,17.11
2022-09-26T07:53:28.835Z,15.74
2022-09-26T07:54:28.858Z,14.90
2022-09-26T07:55:28.829Z,15.03
2022-09-26T07:56:28.870Z,15.03
2022-09-26T07:57:28.830Z,14.53
2022-09-26T07:58:28.810Z,14.50
2022-09-26T07:59:28.842Z,14.16
2022-09-26T08:00:28.806Z,15.01
2022-09-26T08:01:28.862Z,16.26
2022-09-26T08:02:29.594Z,15.99
2022-09-26T08:03:28.782Z,16.14
2022-09-26T08:04:28.845Z,16.71
2022-09-26T08:05:28.800Z,15.92
2022-09-26T08:06:28.767Z,16.56
2022-09-26T08:07:28.842Z,17.06
2022-09-26T08:08:28.760Z,16.83
2022-09-26T08:09:28.800Z,16.44
2022-09-26T08:10:28.766Z,16.42
2022-09-26T08:11:28.726Z,15.97
2022-09-26T08:12:28.721Z,16.18
2022-09-26T08:13:28.718Z,16.40
2022-09-26T08:14:28.714Z,16.26
2022-09-26T08:15:28.718Z,15.82
2022-09-26T08:16:28.772Z,16.85
2022-09-26T08:17:28.686Z,17.23
2022-09-26T08:18:28.701Z,17.20
2022-09-26T08:19:28.684Z,17.88
2022-09-26T08:20:32.156Z,17.55
2022-09-26T08:21:29.668Z,16.49
2022-09-26T08:22:28.659Z,17.51
2022-09-26T08:23:28.655Z,17.89
2022-09-26T08:24:28.642Z,18.24
2022-09-26T08:25:28.714Z,17.53
2022-09-26T08:26:28.626Z,17.99
2022-09-26T08:27:28.635Z,16.60
2022-09-26T08:28:28.622Z,16.23
2022-09-26T08:29:28.615Z,15.52
2022-09-26T08:30:28.647Z,15.23
2022-09-26T08:31:28.615Z,14.94
2022-09-26T08:32:28.602Z,14.72
2022-09-26T08:33:28.591Z,14.91
2022-09-26T08:34:28.591Z,14.81
2022-09-26T08:35:28.598Z,14.91
2022-09-26T08:36:28.560Z,14.88
2022-09-26T08:37:28.572Z,14.69
2022-09-26T08:38:28.554Z,14.54
2022-09-26T08:39:33.121Z,14.62
2022-09-26T08:40:29.625Z,14.87
2022-09-26T08:41:28.528Z,14.78
2022-09-26T08:42:28.568Z,14.78
2022-09-26T08:43:28.530Z,14.71
2022-09-26T08:44:29.490Z,14.61
2022-09-26T08:45:28.510Z,15.20
2022-09-26T08:46:28.579Z,15.79
2022-09-26T08:47:28.485Z,16.37
2022-09-26T08:48:28.508Z,16.75
2022-09-26T08:49:28.473Z,16.37
2022-09-26T08:50:28.497Z,15.93
2022-09-26T08:51:29.444Z,15.60
2022-09-26T08:52:29.482Z,16.60
2022-09-26T08:53:28.470Z,17.28
2022-09-26T08:54:28.444Z,17.81
2022-09-26T08:55:28.456Z,16.89
2022-09-26T08:56:28.443Z,16.77
2022-09-26T08:57:28.433Z,16.33
2022-09-26T08:58:29.090Z,15.97
2022-09-26T08:59:29.408Z,15.97
2022-09-26T09:00:28.440Z,15.94
2022-09-26T09:01:28.500Z,16.89
2022-09-26T09:02:28.495Z,16.99
2022-09-26T09:03:28.395Z,16.31
2022-09-26T09:04:28.472Z,15.31
2022-09-26T09:05:28.384Z,15.15
2022-09-26T09:06:28.390Z,15.13
2022-09-26T09:07:28.381Z,14.68
2022-09-26T09:08:28.364Z,14.47
2022-09-26T09:09:28.356Z,14.65
2022-09-26T09:10:28.348Z,15.76
2022-09-26T09:11:28.380Z,17.18
2022-09-26T09:12:32.111Z,17.08
2022-09-26T09:13:29.335Z,18.90
2022-09-26T09:14:28.327Z,20.59
2022-09-26T09:15:28.327Z,21.35
2022-09-26T09:16:28.550Z,20.72
2022-09-26T09:17:28.312Z,20.00
2022-09-26T09:18:28.303Z,21.09
2022-09-26T09:19:28.285Z,21.85
2022-09-26T09:20:28.307Z,22.69
2022-09-26T09:21:28.287Z,23.17
2022-09-26T09:22:28.281Z,22.64
2022-09-26T09:23:28.334Z,22.75
2022-09-26T09:24:28.279Z,22.59
2022-09-26T09:25:28.251Z,20.38
2022-09-26T09:28:30.256Z,18.91
2022-09-26T09:29:28.264Z,19.36
2022-09-26T09:30:28.220Z,20.33
2022-09-26T09:31:28.221Z,21.51
2022-09-26T09:32:28.243Z,23.09
2022-09-26T09:33:28.194Z,22.97
2022-09-26T09:34:28.205Z,22.71
2022-09-26T09:35:28.197Z,21.79
2022-09-26T09:36:28.197Z,22.47
2022-09-26T09:37:28.187Z,22.44
2022-09-26T09:38:28.192Z,22.83
2022-09-26T09:39:28.216Z,22.72
2022-09-26T09:40:28.237Z,22.97
2022-09-26T09:41:28.151Z,23.50
2022-09-26T09:42:28.142Z,23.40
2022-09-26T09:43:28.159Z,23.46
2022-09-26T09:44:28.162Z,23.17
2022-09-26T09:45:28.131Z,22.83
2022-09-26T09:46:28.166Z,23.80
2022-09-26T09:47:28.105Z,23.77
2022-09-26T09:48:28.123Z,23.45
2022-09-26T09:49:28.102Z,23.90
2022-09-26T09:50:28.108Z,23.26
2022-09-26T09:51:28.089Z,22.57
2022-09-26T09:52:28.102Z,23.19
2022-09-26T09:53:28.103Z,22.67
2022-09-26T09:54:28.079Z,22.60
2022-09-26T09:55:28.071Z,22.35
2022-09-26T09:56:28.058Z,22.64
2022-09-26T09:57:28.067Z,22.80
2022-09-26T09:58:28.047Z,22.54
2022-09-26T09:59:28.042Z,22.77
2022-09-26T10:00:28.042Z,21.88
2022-09-26T10:01:28.035Z,22.97
2022-09-26T10:02:28.048Z,23.53
2022-09-26T10:03:28.051Z,24.79
2022-09-26T10:04:28.030Z,23.94
2022-09-26T10:05:27.997Z,23.38
2022-09-26T10:06:45.245Z,23.76
2022-09-26T10:07:29.035Z,24.14
2022-09-26T10:08:27.985Z,24.88
2022-09-26T10:09:35.667Z,25.25
2022-09-26T10:10:28.970Z,25.17
2022-09-26T10:11:27.981Z,24.80
2022-09-26T10:12:28.024Z,24.90
2022-09-26T10:13:27.950Z,25.02
2022-09-26T10:14:27.933Z,24.02
2022-09-26T10:15:27.936Z,23.64
2022-09-26T10:16:28.034Z,23.05
2022-09-26T10:17:27.942Z,23.07
2022-09-26T10:18:27.935Z,23.27
2022-09-26T10:19:27.902Z,23.22
2022-09-26T10:20:27.898Z,21.54
2022-09-26T10:21:27.891Z,21.29
2022-09-26T10:22:27.899Z,19.66
2022-09-26T10:23:27.870Z,19.53
2022-09-26T10:24:27.886Z,19.48
2022-09-26T10:25:27.873Z,18.98
2022-09-26T10:26:31.453Z,19.23
2022-09-26T10:27:28.878Z,18.83
2022-09-26T10:28:27.874Z,18.83
2022-09-26T10:29:27.854Z,19.51
2022-09-26T10:30:27.880Z,19.66
2022-09-26T10:31:28.103Z,19.39
2022-09-26T10:32:27.848Z,19.11
2022-09-26T10:33:27.821Z,18.76
2022-09-26T10:34:27.838Z,18.50
2022-09-26T10:35:27.818Z,18.04
2022-09-26T10:36:27.803Z,18.03
2022-09-26T10:37:27.841Z,17.81
2022-09-26T10:38:27.801Z,18.19
2022-09-26T10:39:27.781Z,18.24
2022-09-26T10:40:27.780Z,18.15
2022-09-26T10:41:27.762Z,18.37
2022-09-26T10:42:32.167Z,18.76
2022-09-26T10:43:28.784Z,18.65
2022-09-26T10:44:27.818Z,18.31
2022-09-26T10:45:27.761Z,18.28
2022-09-26T10:46:27.811Z,19.36
2022-09-26T10:47:27.738Z,19.21
2022-09-26T10:48:27.722Z,19.61
2022-09-26T10:49:27.754Z,20.90
2022-09-26T10:50:27.724Z,21.35
2022-09-26T10:51:27.746Z,21.61
2022-09-26T10:52:27.709Z,21.83
2022-09-26T10:53:27.687Z,20.87
2022-09-26T10:54:27.686Z,19.29
2022-09-26T10:55:27.722Z,18.82
2022-09-26T10:56:27.687Z,18.70
2022-09-26T10:57:27.893Z,19.05
2022-09-26T10:58:27.653Z,19.17
2022-09-26T10:59:27.701Z,19.25
2022-09-26T11:00:27.650Z,20.09
2022-09-26T11:01:27.719Z,20.51
2022-09-26T11:02:27.645Z,20.05
2022-09-26T11:03:27.675Z,19.79
2022-09-26T11:04:27.657Z,19.78
2022-09-26T11:05:27.726Z,19.97
2022-09-26T11:06:27.610Z,19.47
2022-09-26T11:07:28.626Z,19.06
2022-09-26T11:08:27.606Z,19.15
2022-09-26T11:09:27.617Z,18.98
2022-09-26T11:10:27.738Z,18.91
2022-09-26T11:11:27.574Z,18.95
2022-09-26T11:12:27.568Z,18.87
2022-09-26T11:13:27.553Z,18.57
2022-09-26T11:14:28.536Z,18.50
2022-09-26T11:15:28.708Z,18.65
2022-09-26T11:16:27.597Z,18.98
2022-09-26T11:17:27.525Z,19.13
2022-09-26T11:18:27.534Z,19.35
2022-09-26T11:19:27.523Z,19.38
2022-09-26T11:20:27.545Z,19.54
2022-09-26T11:21:29.302Z,18.83
2022-09-26T11:22:28.506Z,18.86
2022-09-26T11:23:27.525Z,18.98
2022-09-26T11:24:27.505Z,18.82
2022-09-26T11:25:27.509Z,18.59
2022-09-26T11:26:27.486Z,18.27
2022-09-26T11:27:27.511Z,17.92
2022-09-26T11:28:27.467Z,17.87
2022-09-26T11:29:27.474Z,18.06
2022-09-26T11:30:27.458Z,18.31
2022-09-26T11:31:27.562Z,18.25
2022-09-26T11:32:27.491Z,18.24
2022-09-26T11:33:27.435Z,18.33
2022-09-26T11:34:27.485Z,18.37
2022-09-26T11:35:27.410Z,18.22
2022-09-26T11:36:27.404Z,18.02
2022-09-26T11:37:27.461Z,18.18
2022-09-26T11:38:27.429Z,18.00
2022-09-26T11:39:27.401Z,18.24
2022-09-26T11:40:27.484Z,18.18
2022-09-26T11:41:27.395Z,18.28
2022-09-26T11:42:27.412Z,18.40
2022-09-26T11:43:27.366Z,18.25
2022-09-26T11:44:27.388Z,18.54
2022-09-26T11:45:27.373Z,18.57
2022-09-26T11:46:27.441Z,18.44
2022-09-26T11:47:27.406Z,18.73
2022-09-26T11:48:27.364Z,18.72
2022-09-26T11:49:27.348Z,18.82
2022-09-26T11:50:27.356Z,18.80
2022-09-26T11:51:27.331Z,18.83
2022-09-26T11:52:27.315Z,18.92
2022-09-26T11:53:27.304Z,18.62
2022-09-26T11:54:27.319Z,18.27
2022-09-26T11:55:27.287Z,18.07
2022-09-26T11:56:27.363Z,17.97
2022-09-26T11:57:27.275Z,18.19
2022-09-26T11:58:27.295Z,17.91
2022-09-26T11:59:27.310Z,17.53
2022-09-26T12:00:27.298Z,17.54
2022-09-26T12:01:28.011Z,17.74
2022-09-26T12:02:27.316Z,17.57
2022-09-26T12:03:27.397Z,17.74
2022-09-26T12:04:27.236Z,17.89
2022-09-26T12:05:27.737Z,17.82
2022-09-26T12:06:28.230Z,18.07
2022-09-26T12:07:27.219Z,18.04
2022-09-26T12:08:27.222Z,18.09
2022-09-26T12:09:27.184Z,18.24
2022-09-26T12:10:27.217Z,18.31
2022-09-26T12:11:27.228Z,18.22
2022-09-26T12:12:27.177Z,18.33
2022-09-26T12:13:27.157Z,18.49
2022-09-26T12:14:28.184Z,18.62
2022-09-26T12:15:27.172Z,18.46
2022-09-26T12:16:27.186Z,18.19
2022-09-26T12:17:27.173Z,18.42
2022-09-26T12:18:27.196Z,18.24
2022-09-26T12:19:27.128Z,18.09
2022-09-26T12:20:27.133Z,18.06
2022-09-26T12:21:27.112Z,18.06
2022-09-26T12:22:27.135Z,18.24
2022-09-26T12:23:27.152Z,18.37
2022-09-26T12:24:27.084Z,18.22
2022-09-26T12:25:27.084Z,18.07
2022-09-26T12:26:27.080Z,17.94
2022-09-26T12:27:27.108Z,18.04
2022-09-26T12:28:29.453Z,18.21
2022-09-26T12:29:27.067Z,17.70
2022-09-26T12:30:27.048Z,17.76
2022-09-26T12:31:27.085Z,17.88
2022-09-26T12:32:27.056Z,17.81
2022-09-26T12:33:27.070Z,17.78
2022-09-26T12:34:27.025Z,17.81
2022-09-26T12:35:27.088Z,17.79
2022-09-26T12:36:27.013Z,17.73
2022-09-26T12:37:27.133Z,17.41
2022-09-26T12:38:27.025Z,17.38
2022-09-26T12:39:26.997Z,17.48
2022-09-26T12:40:28.042Z,17.57
2022-09-26T12:41:26.980Z,17.85
2022-09-26T12:42:26.959Z,18.12
2022-09-26T12:43:26.965Z,18.07
2022-09-26T12:44:26.960Z,18.04
2022-09-26T12:45:26.952Z,18.09
2022-09-26T12:46:26.981Z,18.07
2022-09-26T12:47:26.959Z,18.10
2022-09-26T12:48:26.926Z,18.12
2022-09-26T12:49:26.948Z,18.07
2022-09-26T12:50:26.941Z,18.13
2022-09-26T12:51:26.921Z,18.31
2022-09-26T12:52:27.590Z,18.10
2022-09-26T12:53:27.915Z,18.00
2022-09-26T12:54:26.910Z,17.54
2022-09-26T12:55:26.898Z,17.53
2022-09-26T12:56:26.901Z,17.78
2022-09-26T12:57:26.886Z,17.76
2022-09-26T12:58:26.870Z,17.59
2022-09-26T12:59:26.887Z,17.64